Private Wetterstation Wechselburg
Wetterdaten: Dienstag, 14.06.2016
Datum Zeit Temp. +2m Bodentemp. Temp.+5cm Temp. Wind Windchill X Diff Temp. Feuchte +2m Feuchte +5cm Sonnenschein Luftdruck Regen Wind Richtung Richtung Sonnenschein Taupunkt Windchill Windben
14.06.2016 00:00 12,6 C 23,6 C 13,7 C 12,9 C 12,9 C 0,3 C 86 % 76 % 0 % 999,6 hPa 0,0 l/m 0,0 km/h (0 Bft) O 90 0 min 10,3 C 12,9 C 0,0 km/h (0 Bft)
14.06.2016 00:05 12,5 C 23,7 C 13,7 C 12,8 C 12,8 C 0,3 C 87 % 76 % 0 % 999,5 hPa 0,0 l/m 0,0 km/h (0 Bft) O 90 0 min 10,4 C 12,8 C 0,0 km/h (0 Bft)
14.06.2016 00:10 12,5 C 23,7 C 13,5 C 12,7 C 12,7 C 0,2 C 87 % 76 % 0 % 999,5 hPa 0,0 l/m 0,0 km/h (0 Bft) O 90 0 min 10,4 C 12,7 C 0,0 km/h (0 Bft)
14.06.2016 00:15 12,5 C 23,7 C 13,5 C 12,6 C 12,6 C 0,1 C 87 % 76 % 0 % 999,5 hPa 0,0 l/m 0,0 km/h (0 Bft) O 90 0 min 10,4 C 12,6 C 0,0 km/h (0 Bft)
14.06.2016 00:20 12,4 C 23,7 C 13,7 C 12,6 C 12,6 C 0,2 C 87 % 75 % 0 % 999,5 hPa 0,0 l/m 0,0 km/h (0 Bft) O 90 0 min 10,3 C 12,6 C 0,0 km/h (0 Bft)
14.06.2016 00:25 12,3 C 23,7 C 13,6 C 12,5 C 12,5 C 0,2 C 87 % 74 % 0 % 999,4 hPa 0,0 l/m 0,0 km/h (0 Bft) W-SW 247 0 min 10,2 C 12,5 C 0,0 km/h (0 Bft)
14.06.2016 00:30 12,3 C 23,7 C 13,6 C 12,5 C 12,5 C 0,2 C 87 % 74 % 0 % 999,4 hPa 0,0 l/m 0,0 km/h (0 Bft) O 90 0 min 10,2 C 12,5 C 0,0 km/h (0 Bft)
14.06.2016 00:35 12,4 C 23,7 C 13,7 C 12,6 C 12,6 C 0,2 C 88 % 74 % 0 % 999,4 hPa 0,0 l/m 0,0 km/h (0 Bft) O 90 0 min 10,5 C 12,6 C 0,0 km/h (0 Bft)
14.06.2016 00:49 12,3 C 23,7 C 13,6 C 12,5 C 12,5 C 0,2 C 87 % 73 % 0 % 999,4 hPa 0,0 l/m 0,0 km/h (0 Bft) N 0 0 min 10,2 C 12,5 C 0,0 km/h (0 Bft)
14.06.2016 00:54 12,3 C 23,7 C 13,7 C 12,5 C 12,5 C 0,2 C 88 % 73 % 0 % 999,4 hPa 0,0 l/m 0,0 km/h (0 Bft) O-NO 67 0 min 10,4 C 12,5 C 0,0 km/h (0 Bft)
14.06.2016 01:00 12,3 C 23,6 C 13,5 C 12,5 C 12,5 C 0,2 C 88 % 73 % 0 % 999,4 hPa 0,0 l/m 0,0 km/h (0 Bft) O-NO 67 0 min 10,4 C 12,5 C 0,0 km/h (0 Bft)
14.06.2016 01:05 12,1 C 23,6 C 13,4 C 12,2 C 12,2 C 0,1 C 87 % 73 % 0 % 999,3 hPa 0,0 l/m 0,0 km/h (0 Bft) O-NO 67 0 min 10,0 C 12,2 C 0,0 km/h (0 Bft)
14.06.2016 01:10 12,0 C 23,7 C 13,5 C 12,0 C 12,0 C 0,0 C 87 % 73 % 0 % 999,3 hPa 0,0 l/m 0,0 km/h (0 Bft) O-NO 67 0 min 9,9 C 12,0 C 0,0 km/h (0 Bft)
14.06.2016 01:15 12,0 C 23,6 C 13,5 C 12,0 C 11,9 C 0,0 C 87 % 72 % 0 % 999,3 hPa 0,0 l/m 0,0 km/h (0 Bft) O-NO 67 0 min 9,9 C 11,9 C 0,0 km/h (0 Bft)
14.06.2016 01:22 11,9 C 23,6 C 13,4 C 11,9 C 11,9 C 0,0 C 87 % 72 % 0 % 999,3 hPa 0,0 l/m 0,0 km/h (0 Bft) O-NO 67 0 min 9,8 C 11,9 C 0,0 km/h (0 Bft)
14.06.2016 01:23 11,9 C 23,6 C 13,3 C 12,1 C 12,1 C 0,2 C 88 % 72 % 0 % 999,3 hPa 0,0 l/m 0,0 km/h (0 Bft) O-NO 67 0 min 10,0 C 12,1 C 0,0 km/h (0 Bft)
14.06.2016 01:24 11,9 C 23,6 C 13,3 C 12,1 C 12,1 C 0,2 C 88 % 72 % 0 % 999,3 hPa 0,0 l/m 0,0 km/h (0 Bft) O-NO 67 0 min 10,0 C 12,1 C 0,0 km/h (0 Bft)
14.06.2016 01:25 11,9 C 23,6 C 13,3 C 12,1 C 12,1 C 0,2 C 88 % 72 % 0 % 999,3 hPa 0,0 l/m 0,0 km/h (0 Bft) O-NO 67 0 min 10,0 C 12,1 C 0,0 km/h (0 Bft)
14.06.2016 01:26 11,9 C 23,6 C 13,3 C 12,1 C 12,1 C 0,2 C 88 % 72 % 0 % 999,3 hPa 0,0 l/m 0,0 km/h (0 Bft) O-NO 67 0 min 10,0 C 12,1 C 0,0 km/h (0 Bft)
14.06.2016 01:27 11,8 C 23,6 C 13,5 C 12,3 C 12,3 C 0,5 C 88 % 72 % 0 % 999,3 hPa 0,0 l/m 0,0 km/h (0 Bft) S-SW 202 0 min 9,9 C 12,3 C 0,0 km/h (0 Bft)
14.06.2016 01:30 11,8 C 23,6 C 13,5 C 12,3 C 12,3 C 0,5 C 88 % 72 % 0 % 999,3 hPa 0,0 l/m 0,0 km/h (0 Bft) S-SW 202 0 min 9,9 C 12,3 C 0,0 km/h (0 Bft)
14.06.2016 01:35 11,9 C 23,6 C 13,5 C 12,4 C 12,4 C 0,5 C 88 % 71 % 0 % 999,3 hPa 0,0 l/m 0,0 km/h (0 Bft) S-SW 202 0 min 10,0 C 12,4 C 0,0 km/h (0 Bft)
14.06.2016 01:40 11,9 C 23,6 C 13,5 C 12,5 C 12,5 C 0,6 C 88 % 71 % 0 % 999,3 hPa 0,0 l/m 0,0 km/h (0 Bft) SW 225 0 min 10,0 C 12,5 C 0,0 km/h (0 Bft)
14.06.2016 01:45 12,0 C 23,6 C 13,5 C 12,6 C 12,6 C 0,6 C 89 % 71 % 0 % 999,3 hPa 0,0 l/m 0,0 km/h (0 Bft) W-SW 247 0 min 10,2 C 12,6 C 0,0 km/h (0 Bft)
14.06.2016 01:50 12,0 C 23,6 C 13,5 C 12,6 C 12,6 C 0,6 C 89 % 71 % 0 % 999,3 hPa 0,0 l/m 0,0 km/h (0 Bft) NO 45 0 min 10,2 C 12,6 C 0,0 km/h (0 Bft)
14.06.2016 01:55 12,2 C 23,6 C 13,6 C 12,8 C 12,8 C 0,6 C 89 % 71 % 0 % 999,3 hPa 0,0 l/m 0,0 km/h (0 Bft) SW 225 0 min 10,4 C 12,8 C 0,0 km/h (0 Bft)
14.06.2016 02:00 12,3 C 23,6 C 13,7 C 12,8 C 12,8 C 0,5 C 89 % 71 % 0 % 999,3 hPa 0,0 l/m 0,0 km/h (0 Bft) O-SO 112 0 min 10,5 C 12,8 C 0,0 km/h (0 Bft)
14.06.2016 02:05 12,3 C 23,6 C 13,7 C 12,8 C 12,8 C 0,5 C 89 % 71 % 0 % 999,2 hPa 0,0 l/m 0,0 km/h (0 Bft) O-SO 112 0 min 10,5 C 12,8 C 0,0 km/h (0 Bft)
14.06.2016 02:10 12,4 C 23,6 C 13,7 C 12,8 C 12,8 C 0,4 C 89 % 70 % 0 % 999,2 hPa 0,0 l/m 0,0 km/h (0 Bft) NO 45 0 min 10,6 C 12,8 C 0,0 km/h (0 Bft)
14.06.2016 02:15 12,4 C 23,6 C 13,7 C 12,8 C 12,8 C 0,4 C 89 % 70 % 0 % 999,2 hPa 0,0 l/m 0,0 km/h (0 Bft) NO 45 0 min 10,6 C 12,8 C 0,0 km/h (0 Bft)
14.06.2016 02:20 12,4 C 23,6 C 13,7 C 12,8 C 12,8 C 0,4 C 89 % 70 % 0 % 999,2 hPa 0,0 l/m 0,0 km/h (0 Bft) NO 45 0 min 10,6 C 12,8 C 0,0 km/h (0 Bft)
14.06.2016 02:25 12,5 C 23,5 C 13,7 C 12,8 C 12,8 C 0,3 C 89 % 70 % 0 % 999,4 hPa 0,0 l/m 0,0 km/h (0 Bft) SW 225 0 min 10,7 C 12,8 C 0,0 km/h (0 Bft)
14.06.2016 02:30 12,4 C 23,5 C 13,7 C 12,8 C 12,8 C 0,4 C 89 % 70 % 0 % 999,4 hPa 0,0 l/m 0,0 km/h (0 Bft) SW 225 0 min 10,6 C 12,8 C 0,0 km/h (0 Bft)
14.06.2016 02:35 12,4 C 23,5 C 13,7 C 12,8 C 12,8 C 0,4 C 90 % 70 % 0 % 999,4 hPa 0,0 l/m 0,0 km/h (0 Bft) O 90 0 min 10,8 C 12,8 C 0,0 km/h (0 Bft)
14.06.2016 02:40 12,5 C 23,5 C 13,9 C 12,8 C 12,8 C 0,3 C 90 % 70 % 0 % 999,4 hPa 0,0 l/m 0,0 km/h (0 Bft) O 90 0 min 10,9 C 12,8 C 0,0 km/h (0 Bft)
14.06.2016 02:45 12,5 C 23,5 C 13,9 C 13,0 C 13,0 C 0,5 C 90 % 70 % 0 % 999,2 hPa 0,0 l/m 0,0 km/h (0 Bft) O-SO 112 0 min 10,9 C 13,0 C 0,0 km/h (0 Bft)
14.06.2016 02:50 12,7 C 23,5 C 13,8 C 13,0 C 13,0 C 0,3 C 90 % 70 % 0 % 999,2 hPa 0,0 l/m 0,0 km/h (0 Bft) O-NO 67 0 min 11,1 C 13,0 C 0,0 km/h (0 Bft)
14.06.2016 02:55 12,7 C 23,5 C 13,9 C 13,1 C 13,1 C 0,4 C 90 % 70 % 0 % 999,2 hPa 0,0 l/m 0,0 km/h (0 Bft) SO 135 0 min 11,1 C 13,1 C 0,0 km/h (0 Bft)
14.06.2016 03:00 12,6 C 23,5 C 13,9 C 13,1 C 13,1 C 0,5 C 90 % 70 % 0 % 999,2 hPa 0,0 l/m 0,0 km/h (0 Bft) S 180 0 min 11,0 C 13,1 C 0,0 km/h (0 Bft)
14.06.2016 03:05 12,7 C 23,5 C 13,8 C 13,1 C 13,1 C 0,4 C 90 % 70 % 0 % 999,2 hPa 0,0 l/m 0,0 km/h (0 Bft) NW 315 0 min 11,1 C 13,1 C 0,0 km/h (0 Bft)
14.06.2016 03:10 12,7 C 23,5 C 13,8 C 13,0 C 13,0 C 0,3 C 90 % 70 % 0 % 999,2 hPa 0,0 l/m 0,0 km/h (0 Bft) N 360 0 min 11,1 C 13,0 C 0,0 km/h (0 Bft)
14.06.2016 03:15 12,7 C 23,5 C 13,8 C 12,9 C 12,9 C 0,2 C 90 % 70 % 0 % 999,2 hPa 0,0 l/m 0,0 km/h (0 Bft) N-NO 22 0 min 11,1 C 12,9 C 0,0 km/h (0 Bft)
14.06.2016 03:20 12,7 C 23,5 C 13,9 C 12,8 C 12,8 C 0,1 C 90 % 70 % 0 % 999,2 hPa 0,0 l/m 0,0 km/h (0 Bft) NO 45 0 min 11,1 C 12,8 C 0,0 km/h (0 Bft)
14.06.2016 03:25 12,7 C 23,5 C 13,7 C 12,7 C 12,7 C 0,0 C 90 % 70 % 0 % 999,1 hPa 0,0 l/m 0,0 km/h (0 Bft) O-NO 67 0 min 11,1 C 12,7 C 0,0 km/h (0 Bft)
14.06.2016 03:30 12,5 C 23,5 C 13,6 C 12,6 C 12,6 C 0,1 C 90 % 70 % 0 % 999,1 hPa 0,0 l/m 0,0 km/h (0 Bft) O 90 0 min 10,9 C 12,6 C 0,0 km/h (0 Bft)
14.06.2016 03:35 12,5 C 23,5 C 13,6 C 12,5 C 12,5 C 0,0 C 90 % 70 % 0 % 999,1 hPa 0,0 l/m 0,0 km/h (0 Bft) O-NO 67 0 min 10,9 C 12,5 C 0,0 km/h (0 Bft)
14.06.2016 03:47 12,4 C 23,4 C 13,5 C 12,4 C 12,4 C 0,0 C 90 % 71 % 0 % 999,1 hPa 0,0 l/m 0,0 km/h (0 Bft) N 0 0 min 10,8 C 12,4 C 0,0 km/h (0 Bft)
14.06.2016 03:55 12,3 C 23,4 C 13,5 C 12,4 C 12,4 C 0,1 C 90 % 71 % 0 % 999,1 hPa 0,0 l/m 0,0 km/h (0 Bft) O-SO 112 0 min 10,7 C 12,4 C 0,0 km/h (0 Bft)
14.06.2016 04:00 12,3 C 23,4 C 13,5 C 12,4 C 12,4 C 0,1 C 90 % 71 % 0 % 999,1 hPa 0,0 l/m 0,0 km/h (0 Bft) N-NO 22 0 min 10,7 C 12,4 C 0,0 km/h (0 Bft)
14.06.2016 04:05 12,3 C 23,4 C 13,5 C 12,3 C 12,3 C 0,0 C 90 % 71 % 0 % 999,2 hPa 0,0 l/m 0,0 km/h (0 Bft) N-NO 22 0 min 10,7 C 12,3 C 0,0 km/h (0 Bft)
14.06.2016 04:15 12,2 C 23,4 C 13,3 C 12,3 C 12,3 C 0,1 C 90 % 70 % 0 % 999,2 hPa 0,0 l/m 0,0 km/h (0 Bft) S 180 0 min 10,6 C 12,3 C 0,0 km/h (0 Bft)
14.06.2016 04:20 12,2 C 23,4 C 13,4 C 12,3 C 12,3 C 0,1 C 90 % 70 % 0 % 999,2 hPa 0,0 l/m 0,0 km/h (0 Bft) W-SW 247 0 min 10,6 C 12,3 C 0,0 km/h (0 Bft)
14.06.2016 04:25 12,3 C 23,4 C 13,5 C 12,5 C 12,5 C 0,2 C 90 % 71 % 0 % 999,2 hPa 0,0 l/m 0,0 km/h (0 Bft) NO 45 0 min 10,7 C 12,5 C 0,0 km/h (0 Bft)
14.06.2016 04:30 12,3 C 23,4 C 13,5 C 12,6 C 12,6 C 0,3 C 90 % 71 % 0 % 999,2 hPa 0,0 l/m 0,0 km/h (0 Bft) NO 45 0 min 10,7 C 12,6 C 0,0 km/h (0 Bft)
14.06.2016 04:35 12,3 C 23,4 C 13,5 C 12,6 C 12,6 C 0,3 C 90 % 71 % 0 % 999,2 hPa 0,0 l/m 0,0 km/h (0 Bft) NO 45 0 min 10,7 C 12,6 C 0,0 km/h (0 Bft)
14.06.2016 04:40 12,3 C 23,4 C 13,5 C 12,7 C 12,7 C 0,4 C 90 % 71 % 0 % 999,2 hPa 0,0 l/m 0,0 km/h (0 Bft) NO 45 0 min 10,7 C 12,7 C 0,0 km/h (0 Bft)
14.06.2016 04:45 12,4 C 23,4 C 13,6 C 12,8 C 12,8 C 0,4 C 90 % 71 % 0 % 999,1 hPa 0,0 l/m 0,0 km/h (0 Bft) NO 45 0 min 10,8 C 12,8 C 0,0 km/h (0 Bft)
14.06.2016 04:50 12,4 C 23,4 C 13,7 C 12,8 C 12,8 C 0,4 C 90 % 71 % 0 % 999,1 hPa 0,0 l/m 0,0 km/h (0 Bft) O 90 0 min 10,8 C 12,8 C 0,0 km/h (0 Bft)
14.06.2016 04:55 12,5 C 23,4 C 13,7 C 12,8 C 12,8 C 0,3 C 90 % 71 % 0 % 999,1 hPa 0,0 l/m 0,0 km/h (0 Bft) O 90 0 min 10,9 C 12,8 C 0,0 km/h (0 Bft)
14.06.2016 05:00 12,4 C 23,4 C 13,6 C 12,8 C 12,8 C 0,4 C 90 % 71 % 0 % 999,1 hPa 0,0 l/m 0,0 km/h (0 Bft) N-NO 22 0 min 10,8 C 12,8 C 0,0 km/h (0 Bft)
14.06.2016 05:05 12,5 C 23,3 C 13,6 C 12,7 C 12,7 C 0,2 C 90 % 71 % 0 % 999,2 hPa 0,0 l/m 0,0 km/h (0 Bft) N-NO 22 0 min 10,9 C 12,7 C 0,0 km/h (0 Bft)
14.06.2016 05:10 12,4 C 23,3 C 13,5 C 12,6 C 12,6 C 0,2 C 90 % 71 % 5 % 999,2 hPa 0,0 l/m 0,0 km/h (0 Bft) NO 45 5 min 10,8 C 12,6 C 0,0 km/h (0 Bft)
14.06.2016 05:15 12,4 C 23,3 C 13,6 C 12,6 C 12,6 C 0,2 C 90 % 71 % 5 % 999,2 hPa 0,0 l/m 0,0 km/h (0 Bft) W 270 0 min 10,8 C 12,6 C 0,0 km/h (0 Bft)
14.06.2016 05:20 12,3 C 23,3 C 13,5 C 12,6 C 12,6 C 0,3 C 90 % 71 % 8 % 999,2 hPa 0,0 l/m 0,0 km/h (0 Bft) O-NO 67 0 min 10,7 C 12,6 C 0,0 km/h (0 Bft)
14.06.2016 05:25 12,4 C 23,3 C 13,7 C 12,7 C 12,7 C 0,3 C 90 % 71 % 8 % 999,2 hPa 0,0 l/m 0,0 km/h (0 Bft) O-NO 67 0 min 10,8 C 12,7 C 0,0 km/h (0 Bft)
14.06.2016 05:30 12,5 C 23,3 C 13,7 C 12,8 C 12,8 C 0,3 C 91 % 71 % 8 % 999,2 hPa 0,0 l/m 0,0 km/h (0 Bft) O-SO 112 0 min 11,1 C 12,8 C 0,0 km/h (0 Bft)
14.06.2016 05:35 12,5 C 23,3 C 13,7 C 13,1 C 13,1 C 0,6 C 91 % 71 % 16 % 999,2 hPa 0,0 l/m 0,0 km/h (0 Bft) O-NO 67 0 min 11,1 C 13,1 C 0,0 km/h (0 Bft)
14.06.2016 05:40 12,5 C 23,3 C 13,8 C 13,1 C 13,1 C 0,6 C 91 % 71 % 16 % 999,2 hPa 0,0 l/m 0,0 km/h (0 Bft) O-NO 67 0 min 11,1 C 13,1 C 0,0 km/h (0 Bft)
14.06.2016 05:45 12,6 C 23,3 C 13,9 C 13,1 C 13,1 C 0,5 C 91 % 71 % 13 % 999,8 hPa 0,0 l/m 0,0 km/h (0 Bft) NW 315 0 min 11,2 C 13,1 C 0,0 km/h (0 Bft)
14.06.2016 05:50 12,7 C 23,3 C 13,7 C 13,1 C 13,1 C 0,4 C 91 % 71 % 11 % 999,8 hPa 0,0 l/m 0,0 km/h (0 Bft) NW 315 0 min 11,3 C 13,1 C 0,0 km/h (0 Bft)
14.06.2016 05:55 12,7 C 23,3 C 13,9 C 13,0 C 13,0 C 0,3 C 91 % 71 % 8 % 999,8 hPa 0,0 l/m 0,0 km/h (0 Bft) W-NW 292 0 min 11,3 C 13,0 C 0,0 km/h (0 Bft)
14.06.2016 06:00 12,7 C 23,3 C 13,8 C 13,0 C 13,0 C 0,3 C 91 % 71 % 8 % 999,8 hPa 0,0 l/m 0,0 km/h (0 Bft) S-SW 202 0 min 11,3 C 13,0 C 0,0 km/h (0 Bft)
14.06.2016 06:05 12,7 C 23,3 C 13,9 C 13,2 C 13,2 C 0,5 C 91 % 71 % 13 % 999,6 hPa 0,0 l/m 0,0 km/h (0 Bft) S 180 0 min 11,3 C 13,2 C 0,0 km/h (0 Bft)
14.06.2016 06:10 12,7 C 23,3 C 13,9 C 13,3 C 13,3 C 0,6 C 91 % 71 % 16 % 999,6 hPa 0,0 l/m 0,0 km/h (0 Bft) S 180 0 min 11,3 C 13,3 C 0,0 km/h (0 Bft)
14.06.2016 06:15 12,8 C 23,3 C 14,0 C 13,4 C 13,4 C 0,6 C 91 % 71 % 16 % 999,6 hPa 0,0 l/m 0,0 km/h (0 Bft) SW 225 0 min 11,4 C 13,4 C 0,0 km/h (0 Bft)
14.06.2016 06:20 12,9 C 23,2 C 14,0 C 13,5 C 13,5 C 0,6 C 91 % 71 % 16 % 999,6 hPa 0,0 l/m 0,2 km/h (0 Bft) S 180 0 min 11,5 C 13,5 C 2,7 km/h (1 Bft)
14.06.2016 06:25 12,9 C 23,3 C 14,0 C 13,6 C 13,6 C 0,7 C 91 % 71 % 18 % 999,7 hPa 0,0 l/m 0,2 km/h (0 Bft) S 180 0 min 11,5 C 13,6 C 0,0 km/h (0 Bft)
14.06.2016 06:30 12,9 C 23,2 C 14,0 C 13,6 C 13,6 C 0,7 C 91 % 71 % 18 % 999,7 hPa 0,0 l/m 0,3 km/h (0 Bft) S 180 0 min 11,5 C 13,6 C 1,8 km/h (1 Bft)
14.06.2016 06:35 13,1 C 23,2 C 14,1 C 13,7 C 13,7 C 0,6 C 92 % 71 % 16 % 999,7 hPa 0,0 l/m 0,5 km/h (0 Bft) S 180 0 min 11,8 C 13,7 C 0,0 km/h (0 Bft)
14.06.2016 06:48 13,2 C 23,1 C 14,3 C 14,1 C 14,1 C 0,9 C 92 % 71 % 24 % 999,8 hPa 0,0 l/m 0,8 km/h (0 Bft) N 0 0 min 11,9 C 14,1 C 2,6 km/h (1 Bft)
14.06.2016 06:55 13,3 C 23,1 C 14,4 C 14,8 C 14,8 C 1,5 C 92 % 71 % 39 % 999,8 hPa 0,0 l/m 0,5 km/h (0 Bft) SO 135 0 min 12,0 C 14,8 C 3,9 km/h (1 Bft)
14.06.2016 07:00 13,5 C 23,1 C 14,6 C 15,0 C 15,0 C 1,5 C 92 % 71 % 39 % 999,8 hPa 0,0 l/m 0,6 km/h (0 Bft) W 270 0 min 12,2 C 15,0 C 0,0 km/h (0 Bft)
14.06.2016 07:05 13,6 C 23,1 C 14,7 C 15,8 C 15,8 C 2,2 C 92 % 71 % 58 % 999,8 hPa 0,0 l/m 0,6 km/h (0 Bft) SO 135 0 min 12,3 C 15,8 C 0,0 km/h (0 Bft)
14.06.2016 07:10 13,7 C 23,1 C 14,8 C 15,9 C 15,9 C 2,2 C 92 % 71 % 58 % 999,8 hPa 0,0 l/m 0,5 km/h (0 Bft) S 180 0 min 12,4 C 15,9 C 3,7 km/h (1 Bft)
14.06.2016 07:15 13,7 C 23,1 C 14,8 C 15,9 C 15,9 C 2,2 C 92 % 71 % 58 % 999,8 hPa 0,0 l/m 0,6 km/h (0 Bft) O-NO 67 0 min 12,4 C 15,9 C 5,0 km/h (1 Bft)
14.06.2016 07:20 13,7 C 23,1 C 14,8 C 15,7 C 15,7 C 2,0 C 92 % 71 % 53 % 999,8 hPa 0,0 l/m 0,8 km/h (0 Bft) N-NW 337 0 min 12,4 C 15,7 C 3,7 km/h (1 Bft)
14.06.2016 07:25 13,8 C 23,1 C 14,8 C 15,8 C 15,8 C 2,0 C 92 % 71 % 53 % 1000,0 hPa 0,0 l/m 0,5 km/h (0 Bft) SO 135 0 min 12,5 C 15,8 C 2,6 km/h (1 Bft)
14.06.2016 07:30 13,8 C 23,1 C 15,0 C 15,9 C 15,9 C 2,1 C 92 % 70 % 55 % 1000,0 hPa 0,0 l/m 0,5 km/h (0 Bft) S-SO 157 0 min 12,5 C 15,9 C 4,5 km/h (1 Bft)
14.06.2016 07:35 13,9 C 23,0 C 15,0 C 16,1 C 16,1 C 2,2 C 92 % 70 % 58 % 1000,0 hPa 0,0 l/m 0,6 km/h (0 Bft) N-NW 337 0 min 12,6 C 16,1 C 4,0 km/h (1 Bft)
14.06.2016 07:40 13,9 C 23,0 C 15,1 C 16,0 C 16,0 C 2,1 C 92 % 70 % 55 % 1000,0 hPa 0,0 l/m 1,1 km/h (1 Bft) S 180 0 min 12,6 C 16,0 C 0,0 km/h (0 Bft)
14.06.2016 07:45 14,0 C 23,0 C 15,1 C 16,1 C 16,1 C 2,1 C 92 % 70 % 55 % 1000,2 hPa 0,0 l/m 0,8 km/h (0 Bft) S-SO 157 0 min 12,7 C 16,1 C 6,1 km/h (2 Bft)
14.06.2016 07:50 14,0 C 23,0 C 15,1 C 16,2 C 16,2 C 2,2 C 92 % 70 % 58 % 1000,2 hPa 0,0 l/m 0,6 km/h (0 Bft) W 270 0 min 12,7 C 16,2 C 1,6 km/h (1 Bft)
14.06.2016 07:55 14,1 C 23,0 C 15,2 C 17,0 C 17,0 C 2,9 C 92 % 70 % 76 % 1000,2 hPa 0,0 l/m 0,8 km/h (0 Bft) W-SW 247 0 min 12,8 C 17,0 C 3,7 km/h (1 Bft)
14.06.2016 08:00 14,2 C 22,9 C 15,3 C 17,5 C 17,5 C 3,3 C 92 % 70 % 87 % 1000,2 hPa 0,0 l/m 0,8 km/h (0 Bft) S 180 5 min 12,9 C 17,5 C 3,1 km/h (1 Bft)
14.06.2016 08:05 14,5 C 22,9 C 15,5 C 17,9 C 17,9 C 3,4 C 92 % 70 % 89 % 1000,1 hPa 0,0 l/m 0,6 km/h (0 Bft) S-SO 157 5 min 13,2 C 17,9 C 0,0 km/h (0 Bft)
14.06.2016 08:10 14,5 C 22,9 C 15,5 C 17,9 C 17,9 C 3,4 C 92 % 70 % 89 % 1000,1 hPa 0,0 l/m 1,0 km/h (0 Bft) S-SW 202 5 min 13,2 C 17,9 C 0,0 km/h (0 Bft)
14.06.2016 08:15 14,7 C 22,9 C 15,6 C 18,1 C 18,1 C 3,4 C 92 % 70 % 89 % 1000,1 hPa 0,0 l/m 1,0 km/h (0 Bft) NW 315 5 min 13,4 C 18,1 C 2,3 km/h (1 Bft)
14.06.2016 08:20 14,9 C 22,9 C 15,7 C 18,3 C 18,3 C 3,4 C 92 % 70 % 89 % 1000,1 hPa 0,0 l/m 0,8 km/h (0 Bft) SW 225 5 min 13,6 C 18,3 C 1,9 km/h (1 Bft)
14.06.2016 08:25 14,9 C 22,9 C 15,9 C 18,6 C 18,6 C 3,7 C 92 % 69 % 97 % 1000,2 hPa 0,0 l/m 1,3 km/h (1 Bft) SW 225 5 min 13,6 C 18,6 C 3,2 km/h (1 Bft)
14.06.2016 08:30 15,1 C 22,8 C 15,9 C 18,7 C 18,7 C 3,6 C 91 % 69 % 95 % 1000,2 hPa 0,0 l/m 1,6 km/h (1 Bft) W-SW 247 5 min 13,6 C 18,7 C 1,8 km/h (1 Bft)
14.06.2016 08:35 15,0 C 22,8 C 15,9 C 18,7 C 18,7 C 3,7 C 90 % 69 % 97 % 1000,2 hPa 0,0 l/m 2,7 km/h (1 Bft) S 180 5 min 13,4 C 18,7 C 10,6 km/h (2 Bft)
14.06.2016 08:40 15,0 C 22,8 C 15,9 C 18,7 C 18,7 C 3,7 C 90 % 69 % 97 % 1000,2 hPa 0,0 l/m 2,7 km/h (1 Bft) SO 135 5 min 13,4 C 18,7 C 1,8 km/h (1 Bft)
14.06.2016 08:45 15,2 C 22,7 C 16,0 C 19,4 C 19,4 C 4,2 C 90 % 69 % 100 % 1000,2 hPa 0,0 l/m 2,6 km/h (1 Bft) S 180 5 min 13,6 C 19,4 C 2,3 km/h (1 Bft)
14.06.2016 08:50 15,5 C 22,7 C 16,3 C 19,6 C 19,6 C 4,1 C 89 % 69 % 100 % 1000,2 hPa 0,0 l/m 2,6 km/h (1 Bft) S 180 5 min 13,7 C 19,6 C 9,2 km/h (2 Bft)
14.06.2016 09:00 15,3 C 22,7 C 16,3 C 19,4 C 19,4 C 4,1 C 87 % 69 % 100 % 1000,2 hPa 0,0 l/m 2,7 km/h (1 Bft) S-SO 157 10 min 13,1 C 19,4 C 3,5 km/h (1 Bft)
14.06.2016 09:05 15,3 C 22,6 C 16,3 C 19,2 C 19,2 C 3,9 C 86 % 69 % 100 % 1000,2 hPa 0,0 l/m 2,7 km/h (1 Bft) SW 225 5 min 13,0 C 19,2 C 0,0 km/h (0 Bft)
14.06.2016 09:10 15,3 C 22,7 C 16,2 C 19,0 C 19,0 C 3,7 C 86 % 69 % 97 % 1000,2 hPa 0,0 l/m 2,3 km/h (1 Bft) S-SW 202 5 min 13,0 C 19,0 C 1,9 km/h (1 Bft)
14.06.2016 09:15 15,5 C 22,6 C 16,3 C 19,1 C 19,1 C 3,6 C 85 % 70 % 95 % 1000,2 hPa 0,0 l/m 2,3 km/h (1 Bft) SW 225 5 min 13,0 C 19,1 C 7,7 km/h (2 Bft)
14.06.2016 09:25 15,5 C 22,7 C 16,4 C 19,8 C 19,8 C 4,3 C 84 % 70 % 100 % 1000,2 hPa 0,0 l/m 2,3 km/h (1 Bft) W 270 10 min 12,8 C 19,8 C 0,0 km/h (0 Bft)
14.06.2016 09:30 15,6 C 22,6 C 16,5 C 20,1 C 20,1 C 4,5 C 83 % 71 % 100 % 1000,2 hPa 0,0 l/m 2,7 km/h (1 Bft) W-SW 247 5 min 12,7 C 20,1 C 5,5 km/h (1 Bft)
14.06.2016 09:35 15,9 C 22,7 C 16,6 C 20,5 C 20,5 C 4,6 C 82 % 72 % 100 % 1000,2 hPa 0,0 l/m 2,6 km/h (1 Bft) SW 225 5 min 12,8 C 20,5 C 2,3 km/h (1 Bft)
14.06.2016 09:59 16,4 C 22,6 C 16,4 C 19,7 C 19,7 C 3,3 C 79 % 76 % 87 % 1000,0 hPa 0,0 l/m 3,1 km/h (1 Bft) N 0 24 min 12,7 C 19,7 C 3,7 km/h (1 Bft)
14.06.2016 10:00 16,4 C 22,6 C 16,4 C 19,7 C 19,7 C 3,3 C 79 % 76 % 87 % 1000,0 hPa 0,0 l/m 3,1 km/h (1 Bft) N 0 1 min 12,7 C 19,7 C 3,7 km/h (1 Bft)
14.06.2016 10:10 16,7 C 22,6 C 16,7 C 21,7 C 21,7 C 5,0 C 80 % 76 % 100 % 1000,2 hPa 0,0 l/m 1,9 km/h (1 Bft) W-NW 292 10 min 13,2 C 21,7 C 4,8 km/h (1 Bft)
14.06.2016 10:15 17,0 C 22,6 C 16,7 C 21,5 C 21,5 C 4,5 C 78 % 77 % 100 % 1000,2 hPa 0,0 l/m 1,8 km/h (1 Bft) W 270 5 min 13,1 C 21,5 C 3,2 km/h (1 Bft)
14.06.2016 10:20 17,0 C 22,6 C 16,7 C 21,6 C 21,6 C 4,6 C 78 % 77 % 100 % 1000,2 hPa 0,0 l/m 1,9 km/h (1 Bft) W 270 5 min 13,1 C 21,6 C 6,1 km/h (2 Bft)
14.06.2016 10:25 17,2 C 22,6 C 16,8 C 21,4 C 21,4 C 4,2 C 78 % 79 % 100 % 1000,1 hPa 0,0 l/m 2,4 km/h (1 Bft) S-SW 202 5 min 13,3 C 21,4 C 4,0 km/h (1 Bft)
14.06.2016 10:30 17,2 C 22,6 C 16,8 C 22,3 C 22,3 C 5,1 C 78 % 79 % 100 % 1000,1 hPa 0,0 l/m 2,3 km/h (1 Bft) W-SW 247 5 min 13,3 C 22,3 C 1,9 km/h (1 Bft)
14.06.2016 10:35 17,6 C 22,6 C 17,0 C 24,6 C 24,6 C 7,0 C 77 % 80 % 100 % 1000,1 hPa 0,0 l/m 1,8 km/h (1 Bft) S 180 5 min 13,5 C 24,6 C 2,3 km/h (1 Bft)
14.06.2016 10:40 17,8 C 22,6 C 17,1 C 24,6 C 24,6 C 6,8 C 76 % 80 % 100 % 1000,1 hPa 0,0 l/m 1,9 km/h (1 Bft) N-NO 22 5 min 13,5 C 24,6 C 1,9 km/h (1 Bft)
14.06.2016 10:45 18,3 C 22,6 C 17,2 C 24,7 C 24,7 C 6,4 C 76 % 81 % 100 % 1000,0 hPa 0,0 l/m 1,6 km/h (1 Bft) SW 225 5 min 14,0 C 24,7 C 0,0 km/h (0 Bft)
14.06.2016 10:50 18,4 C 22,6 C 17,3 C 24,2 C 24,2 C 5,8 C 75 % 82 % 100 % 1000,0 hPa 0,0 l/m 1,6 km/h (1 Bft) S-SW 202 5 min 13,9 C 24,2 C 2,3 km/h (1 Bft)
14.06.2016 10:55 18,5 C 22,6 C 17,4 C 25,0 C 25,0 C 6,5 C 75 % 83 % 100 % 1000,0 hPa 0,0 l/m 1,3 km/h (1 Bft) SW 225 5 min 14,0 C 25,0 C 0,0 km/h (0 Bft)
14.06.2016 11:00 18,7 C 22,6 C 17,6 C 25,6 C 25,6 C 6,9 C 75 % 83 % 100 % 1000,0 hPa 0,0 l/m 1,0 km/h (0 Bft) NW 315 5 min 14,2 C 25,6 C 0,0 km/h (0 Bft)
14.06.2016 11:05 19,1 C 22,6 C 17,7 C 25,8 C 25,8 C 6,7 C 73 % 83 % 100 % 999,9 hPa 0,0 l/m 1,9 km/h (1 Bft) S 180 5 min 14,1 C 25,8 C 4,5 km/h (1 Bft)
14.06.2016 11:10 19,1 C 22,6 C 17,6 C 25,4 C 25,4 C 6,3 C 73 % 84 % 100 % 999,9 hPa 0,0 l/m 2,3 km/h (1 Bft) SW 225 5 min 14,1 C 25,4 C 4,5 km/h (1 Bft)
14.06.2016 11:15 19,0 C 22,6 C 17,7 C 25,6 C 25,6 C 6,6 C 73 % 85 % 100 % 999,9 hPa 0,0 l/m 2,4 km/h (1 Bft) S-SO 157 5 min 14,0 C 25,6 C 5,0 km/h (1 Bft)
14.06.2016 11:20 19,1 C 22,6 C 18,0 C 26,1 C 26,1 C 7,0 C 73 % 85 % 100 % 999,9 hPa 0,0 l/m 2,7 km/h (1 Bft) S-SW 202 5 min 14,1 C 26,1 C 3,7 km/h (1 Bft)
14.06.2016 11:25 19,5 C 22,6 C 18,2 C 26,3 C 26,3 C 6,8 C 73 % 86 % 100 % 999,9 hPa 0,0 l/m 2,9 km/h (1 Bft) S-SW 202 5 min 14,5 C 26,3 C 6,3 km/h (2 Bft)
14.06.2016 11:30 19,7 C 22,6 C 18,4 C 26,3 C 26,3 C 6,6 C 72 % 86 % 100 % 999,9 hPa 0,0 l/m 3,1 km/h (1 Bft) S-SW 202 5 min 14,5 C 26,3 C 5,1 km/h (1 Bft)
14.06.2016 11:35 19,6 C 22,6 C 18,2 C 25,0 C 25,0 C 5,4 C 70 % 87 % 100 % 999,9 hPa 0,0 l/m 3,1 km/h (1 Bft) SW 225 5 min 14,0 C 25,0 C 3,1 km/h (1 Bft)
14.06.2016 11:40 19,7 C 22,6 C 18,2 C 24,7 C 24,7 C 5,0 C 71 % 87 % 100 % 999,9 hPa 0,0 l/m 2,6 km/h (1 Bft) S-SO 157 5 min 14,3 C 24,7 C 2,3 km/h (1 Bft)
14.06.2016 11:45 19,9 C 22,6 C 18,4 C 24,2 C 24,2 C 4,3 C 71 % 87 % 100 % 999,8 hPa 0,0 l/m 1,3 km/h (1 Bft) W-SW 247 5 min 14,5 C 24,2 C 0,0 km/h (0 Bft)
14.06.2016 11:50 19,8 C 22,6 C 18,4 C 24,4 C 24,4 C 4,6 C 71 % 87 % 100 % 999,8 hPa 0,0 l/m 1,6 km/h (1 Bft) S 180 5 min 14,4 C 24,4 C 3,2 km/h (1 Bft)
14.06.2016 11:55 20,1 C 22,6 C 18,5 C 24,6 C 24,6 C 4,5 C 71 % 87 % 100 % 999,8 hPa 0,0 l/m 1,3 km/h (1 Bft) W-SW 247 5 min 14,7 C 24,6 C 1,8 km/h (1 Bft)
14.06.2016 12:00 20,1 C 22,6 C 18,4 C 24,2 C 24,2 C 4,1 C 71 % 87 % 100 % 999,8 hPa 0,0 l/m 0,8 km/h (0 Bft) NW 315 5 min 14,7 C 24,2 C 1,6 km/h (1 Bft)
14.06.2016 12:05 20,1 C 22,6 C 18,3 C 23,4 C 23,4 C 3,3 C 70 % 87 % 87 % 1000,1 hPa 0,0 l/m 0,6 km/h (0 Bft) S-SW 202 5 min 14,5 C 23,4 C 1,6 km/h (1 Bft)
14.06.2016 12:10 20,0 C 22,6 C 18,3 C 23,2 C 23,2 C 3,2 C 71 % 87 % 84 % 1000,1 hPa 0,0 l/m 0,6 km/h (0 Bft) W-SW 247 0 min 14,6 C 23,2 C 1,6 km/h (1 Bft)
14.06.2016 12:15 20,2 C 22,6 C 18,5 C 23,9 C 23,9 C 3,7 C 71 % 87 % 97 % 1000,1 hPa 0,0 l/m 0,6 km/h (0 Bft) S-SO 157 5 min 14,8 C 23,9 C 0,0 km/h (0 Bft)
14.06.2016 12:20 20,3 C 22,6 C 18,5 C 23,9 C 23,9 C 3,6 C 70 % 87 % 95 % 1000,1 hPa 0,0 l/m 0,3 km/h (0 Bft) NO 45 5 min 14,6 C 23,9 C 0,0 km/h (0 Bft)
14.06.2016 12:25 20,3 C 22,6 C 18,4 C 23,4 C 23,4 C 3,1 C 70 % 87 % 82 % 999,8 hPa 0,0 l/m 0,5 km/h (0 Bft) S-SW 202 0 min 14,6 C 23,4 C 4,3 km/h (1 Bft)
14.06.2016 12:30 20,4 C 22,6 C 18,5 C 23,3 C 23,3 C 2,9 C 70 % 87 % 76 % 999,8 hPa 0,0 l/m 0,8 km/h (0 Bft) SO 135 0 min 14,7 C 23,3 C 2,3 km/h (1 Bft)
14.06.2016 12:35 20,4 C 22,6 C 18,5 C 23,4 C 23,4 C 3,0 C 70 % 87 % 79 % 999,8 hPa 0,0 l/m 1,0 km/h (0 Bft) S-SW 202 0 min 14,7 C 23,4 C 1,8 km/h (1 Bft)
14.06.2016 12:57 20,9 C 22,6 C 18,9 C 24,5 C 24,5 C 3,6 C 69 % 87 % 95 % 999,6 hPa 0,0 l/m 2,1 km/h (1 Bft) N 0 22 min 15,0 C 24,5 C 5,0 km/h (1 Bft)
14.06.2016 13:05 21,2 C 22,6 C 19,2 C 25,6 C 25,6 C 4,4 C 67 % 87 % 100 % 999,6 hPa 0,0 l/m 2,9 km/h (1 Bft) N 360 8 min 14,8 C 25,6 C 2,4 km/h (1 Bft)
14.06.2016 13:10 21,5 C 22,6 C 19,3 C 26,4 C 26,4 C 4,9 C 67 % 87 % 100 % 999,6 hPa 0,0 l/m 2,7 km/h (1 Bft) S 180 5 min 15,1 C 26,4 C 6,3 km/h (2 Bft)
14.06.2016 13:15 21,4 C 22,6 C 19,1 C 25,2 C 25,2 C 3,8 C 65 % 86 % 100 % 999,6 hPa 0,0 l/m 1,4 km/h (1 Bft) W-SW 247 5 min 14,5 C 25,2 C 1,8 km/h (1 Bft)
14.06.2016 13:20 21,2 C 22,6 C 18,8 C 24,1 C 24,1 C 2,9 C 66 % 86 % 76 % 999,6 hPa 0,0 l/m 1,3 km/h (1 Bft) NW 315 0 min 14,6 C 24,1 C 1,6 km/h (1 Bft)
14.06.2016 13:25 20,8 C 22,6 C 18,7 C 22,7 C 22,7 C 1,9 C 66 % 86 % 50 % 999,4 hPa 0,0 l/m 1,0 km/h (0 Bft) W-SW 247 0 min 14,2 C 22,7 C 0,0 km/h (0 Bft)
14.06.2016 13:30 20,5 C 22,6 C 18,5 C 22,3 C 22,3 C 1,8 C 66 % 87 % 47 % 999,4 hPa 0,0 l/m 1,1 km/h (1 Bft) W 270 0 min 13,9 C 22,3 C 0,0 km/h (0 Bft)
14.06.2016 13:35 20,4 C 22,6 C 18,5 C 22,1 C 22,1 C 1,7 C 67 % 87 % 45 % 999,4 hPa 0,0 l/m 0,6 km/h (0 Bft) W 270 0 min 14,1 C 22,1 C 0,0 km/h (0 Bft)
14.06.2016 13:40 20,4 C 22,6 C 18,5 C 22,4 C 22,4 C 2,0 C 68 % 87 % 53 % 999,4 hPa 0,0 l/m 0,3 km/h (0 Bft) S-SW 202 0 min 14,3 C 22,4 C 1,9 km/h (1 Bft)
14.06.2016 13:45 20,5 C 22,6 C 18,7 C 22,7 C 22,7 C 2,2 C 68 % 87 % 58 % 999,2 hPa 0,0 l/m 0,6 km/h (0 Bft) N-NW 337 0 min 14,4 C 22,7 C 0,0 km/h (0 Bft)
14.06.2016 13:50 20,7 C 22,6 C 18,8 C 23,2 C 23,2 C 2,5 C 69 % 87 % 66 % 999,2 hPa 0,0 l/m 0,8 km/h (0 Bft) SO 135 0 min 14,8 C 23,2 C 3,4 km/h (1 Bft)
14.06.2016 13:55 20,8 C 22,7 C 19,1 C 24,0 C 24,0 C 3,2 C 69 % 87 % 84 % 999,2 hPa 0,0 l/m 0,3 km/h (0 Bft) O-NO 67 0 min 14,9 C 24,0 C 0,0 km/h (0 Bft)
14.06.2016 14:00 21,1 C 22,7 C 19,3 C 25,3 C 25,3 C 4,2 C 69 % 87 % 100 % 999,2 hPa 0,0 l/m 1,0 km/h (0 Bft) NW 315 5 min 15,2 C 25,3 C 2,9 km/h (1 Bft)
14.06.2016 14:05 21,6 C 22,7 C 19,7 C 26,2 C 26,2 C 4,6 C 68 % 86 % 100 % 998,8 hPa 0,0 l/m 1,6 km/h (1 Bft) NO 45 5 min 15,4 C 26,2 C 2,9 km/h (1 Bft)
14.06.2016 14:10 21,9 C 22,7 C 19,7 C 25,9 C 25,9 C 4,0 C 67 % 86 % 100 % 998,8 hPa 0,0 l/m 2,1 km/h (1 Bft) SO 135 5 min 15,5 C 25,9 C 3,4 km/h (1 Bft)
14.06.2016 14:20 21,9 C 22,7 C 19,7 C 25,6 C 25,6 C 3,7 C 66 % 85 % 97 % 998,8 hPa 0,0 l/m 2,7 km/h (1 Bft) N-NO 22 10 min 15,3 C 25,6 C 0,0 km/h (0 Bft)
14.06.2016 14:25 22,1 C 22,7 C 19,9 C 27,0 C 27,0 C 4,9 C 65 % 85 % 100 % 999,0 hPa 0,0 l/m 1,1 km/h (1 Bft) SO 135 5 min 15,2 C 27,0 C 0,0 km/h (0 Bft)
14.06.2016 14:30 22,5 C 22,7 C 20,0 C 27,7 C 27,7 C 5,2 C 65 % 85 % 100 % 999,0 hPa 0,0 l/m 0,6 km/h (0 Bft) NW 315 5 min 15,6 C 27,7 C 0,0 km/h (0 Bft)
14.06.2016 14:35 23,2 C 22,7 C 20,5 C 28,2 C 28,2 C 5,0 C 63 % 85 % 100 % 999,0 hPa 0,0 l/m 1,3 km/h (1 Bft) SW 225 5 min 15,8 C 28,2 C 4,7 km/h (1 Bft)
14.06.2016 14:40 23,6 C 22,8 C 20,8 C 28,3 C 28,3 C 4,7 C 61 % 84 % 100 % 999,0 hPa 0,0 l/m 2,1 km/h (1 Bft) W-SW 247 5 min 15,6 C 28,3 C 9,3 km/h (2 Bft)
14.06.2016 14:45 23,9 C 22,8 C 20,9 C 27,9 C 27,9 C 4,0 C 59 % 83 % 100 % 998,9 hPa 0,0 l/m 2,4 km/h (1 Bft) O-NO 67 5 min 15,4 C 27,9 C 4,8 km/h (1 Bft)
14.06.2016 14:50 23,9 C 22,7 C 20,8 C 28,1 C 28,1 C 4,2 C 57 % 82 % 100 % 998,9 hPa 0,0 l/m 2,4 km/h (1 Bft) W-SW 247 5 min 14,9 C 28,1 C 3,1 km/h (1 Bft)
14.06.2016 14:55 23,9 C 22,8 C 20,6 C 28,1 C 28,1 C 4,2 C 58 % 82 % 100 % 998,9 hPa 0,0 l/m 1,8 km/h (1 Bft) S 180 5 min 15,1 C 28,1 C 1,8 km/h (1 Bft)
14.06.2016 15:00 24,1 C 22,7 C 20,7 C 28,0 C 28,0 C 3,9 C 58 % 82 % 100 % 998,9 hPa 0,0 l/m 1,9 km/h (1 Bft) N-NO 22 5 min 15,3 C 28,0 C 2,9 km/h (1 Bft)
14.06.2016 15:05 24,3 C 22,7 C 20,8 C 28,5 C 28,5 C 4,2 C 57 % 82 % 100 % 998,9 hPa 0,0 l/m 1,3 km/h (1 Bft) S-SO 157 5 min 15,2 C 28,5 C 2,6 km/h (1 Bft)
14.06.2016 15:10 23,8 C 22,7 C 20,4 C 28,3 C 28,3 C 4,5 C 55 % 81 % 100 % 998,9 hPa 0,0 l/m 1,1 km/h (1 Bft) NO 45 5 min 14,2 C 28,3 C 1,6 km/h (1 Bft)
14.06.2016 15:15 22,7 C 22,8 C 20,1 C 26,1 C 26,1 C 3,4 C 57 % 81 % 89 % 998,9 hPa 0,0 l/m 0,8 km/h (0 Bft) NO 45 5 min 13,7 C 26,1 C 0,0 km/h (0 Bft)
14.06.2016 15:20 22,7 C 22,8 C 20,3 C 26,4 C 26,4 C 3,7 C 58 % 81 % 97 % 998,9 hPa 0,0 l/m 0,8 km/h (0 Bft) W 270 5 min 14,0 C 26,4 C 0,0 km/h (0 Bft)
14.06.2016 15:25 23,3 C 22,8 C 20,7 C 28,2 C 28,2 C 4,9 C 57 % 81 % 100 % 998,4 hPa 0,0 l/m 1,1 km/h (1 Bft) SW 225 5 min 14,3 C 28,2 C 4,7 km/h (1 Bft)
14.06.2016 15:30 23,5 C 22,8 C 20,8 C 28,4 C 28,4 C 4,9 C 55 % 77 % 100 % 998,4 hPa 0,0 l/m 1,9 km/h (1 Bft) O-SO 112 5 min 13,9 C 28,4 C 2,1 km/h (1 Bft)
14.06.2016 15:35 23,3 C 22,7 C 20,8 C 28,5 C 28,5 C 5,2 C 56 % 79 % 100 % 998,4 hPa 0,0 l/m 1,9 km/h (1 Bft) S 180 5 min 14,0 C 28,5 C 5,5 km/h (1 Bft)
14.06.2016 15:59 24,1 C 22,7 C 21,3 C 27,6 C 27,6 C 3,5 C 55 % 76 % 92 % 998,2 hPa 0,0 l/m 0,8 km/h (0 Bft) N 0 24 min 14,5 C 27,6 C 2,6 km/h (1 Bft)
14.06.2016 16:00 24,1 C 22,7 C 21,3 C 27,6 C 27,6 C 3,5 C 55 % 76 % 92 % 998,2 hPa 0,0 l/m 0,8 km/h (0 Bft) N 0 1 min 14,5 C 27,6 C 2,6 km/h (1 Bft)
14.06.2016 16:10 24,1 C 22,8 C 22,3 C 28,5 C 28,5 C 4,4 C 56 % 73 % 100 % 998,4 hPa 0,0 l/m 1,0 km/h (0 Bft) O-SO 112 10 min 14,8 C 28,5 C 1,8 km/h (1 Bft)
14.06.2016 16:15 24,0 C 22,8 C 22,7 C 30,1 C 30,1 C 6,1 C 56 % 71 % 100 % 998,4 hPa 0,0 l/m 0,6 km/h (0 Bft) O-NO 67 5 min 14,7 C 30,1 C 0,0 km/h (0 Bft)
14.06.2016 16:20 23,8 C 22,8 C 22,3 C 29,8 C 29,8 C 6,0 C 55 % 69 % 100 % 998,4 hPa 0,0 l/m 0,6 km/h (0 Bft) S-SW 202 5 min 14,2 C 29,8 C 3,2 km/h (1 Bft)
14.06.2016 16:25 23,9 C 22,8 C 24,3 C 30,0 C 30,0 C 6,1 C 55 % 70 % 100 % 998,1 hPa 0,0 l/m 0,8 km/h (0 Bft) S-SO 157 5 min 14,3 C 30,0 C 1,8 km/h (1 Bft)
14.06.2016 16:30 23,8 C 22,8 C 25,1 C 30,5 C 30,5 C 6,7 C 54 % 68 % 100 % 998,1 hPa 0,0 l/m 1,3 km/h (1 Bft) W-SW 247 5 min 13,9 C 30,5 C 3,2 km/h (1 Bft)
14.06.2016 16:35 23,7 C 22,8 C 25,7 C 30,7 C 30,7 C 7,0 C 56 % 65 % 100 % 998,1 hPa 0,0 l/m 1,8 km/h (1 Bft) SO 135 5 min 14,4 C 30,7 C 4,2 km/h (1 Bft)
14.06.2016 16:40 23,7 C 22,8 C 25,7 C 30,1 C 30,1 C 6,4 C 55 % 64 % 100 % 998,1 hPa 0,0 l/m 2,1 km/h (1 Bft) W 270 5 min 14,1 C 30,1 C 4,5 km/h (1 Bft)
14.06.2016 16:45 23,5 C 22,8 C 25,1 C 29,4 C 29,4 C 5,9 C 55 % 61 % 100 % 998,2 hPa 0,0 l/m 1,8 km/h (1 Bft) W 270 5 min 13,9 C 29,4 C 0,0 km/h (0 Bft)
14.06.2016 16:50 23,5 C 22,8 C 24,4 C 28,6 C 28,6 C 5,1 C 55 % 61 % 100 % 998,2 hPa 0,0 l/m 1,4 km/h (1 Bft) N-NW 337 5 min 13,9 C 28,6 C 2,9 km/h (1 Bft)
14.06.2016 16:55 23,3 C 22,8 C 23,9 C 27,6 C 27,6 C 4,3 C 56 % 63 % 100 % 998,2 hPa 0,0 l/m 1,1 km/h (1 Bft) S 180 5 min 14,0 C 27,6 C 2,1 km/h (1 Bft)
14.06.2016 17:00 23,3 C 22,8 C 23,7 C 27,2 C 27,2 C 3,9 C 55 % 62 % 100 % 998,2 hPa 0,0 l/m 1,8 km/h (1 Bft) W 270 5 min 13,7 C 27,2 C 4,0 km/h (1 Bft)
14.06.2016 17:05 23,1 C 22,8 C 22,6 C 25,9 C 25,9 C 2,8 C 56 % 63 % 74 % 998,0 hPa 0,0 l/m 1,8 km/h (1 Bft) S 180 0 min 13,8 C 25,9 C 0,0 km/h (0 Bft)
14.06.2016 17:10 22,9 C 22,8 C 22,3 C 25,1 C 25,1 C 2,2 C 57 % 65 % 58 % 998,0 hPa 0,0 l/m 1,1 km/h (1 Bft) W 270 0 min 13,9 C 25,1 C 1,8 km/h (1 Bft)
14.06.2016 17:15 22,7 C 22,9 C 21,6 C 24,1 C 24,1 C 1,4 C 57 % 66 % 37 % 998,0 hPa 0,0 l/m 0,2 km/h (0 Bft) S 180 0 min 13,7 C 24,1 C 0,0 km/h (0 Bft)
14.06.2016 17:20 22,6 C 22,9 C 21,3 C 23,6 C 23,6 C 1,0 C 57 % 66 % 26 % 998,0 hPa 0,0 l/m 0,2 km/h (0 Bft) S-SO 157 0 min 13,6 C 23,6 C 0,0 km/h (0 Bft)
14.06.2016 17:25 22,3 C 22,9 C 20,9 C 22,7 C 22,7 C 0,4 C 58 % 67 % 11 % 998,5 hPa 0,0 l/m 1,4 km/h (1 Bft) S-SW 202 0 min 13,6 C 22,7 C 12,4 km/h (3 Bft)
14.06.2016 17:30 21,4 C 22,9 C 20,4 C 21,6 C 21,6 C 0,2 C 58 % 66 % 5 % 998,5 hPa 0,0 l/m 3,9 km/h (1 Bft) W-SW 247 0 min 12,8 C 21,6 C 5,5 km/h (1 Bft)
14.06.2016 17:35 20,5 C 22,9 C 19,6 C 20,4 C 20,3 C 0,0 C 59 % 67 % 0 % 998,5 hPa 0,0 l/m 5,1 km/h (1 Bft) NW 315 0 min 12,2 C 20,3 C 14,5 km/h (3 Bft)
14.06.2016 17:40 19,9 C 22,9 C 19,2 C 19,9 C 19,8 C 0,0 C 60 % 68 % 0 % 998,5 hPa 0,0 l/m 4,5 km/h (1 Bft) S 180 0 min 11,9 C 19,8 C 9,0 km/h (2 Bft)
14.06.2016 17:45 19,4 C 22,9 C 18,9 C 19,3 C 19,2 C 0,0 C 61 % 68 % 0 % 998,2 hPa 0,0 l/m 4,0 km/h (1 Bft) S 180 0 min 11,7 C 19,2 C 4,7 km/h (1 Bft)
14.06.2016 17:50 19,2 C 22,9 C 18,8 C 19,1 C 19,0 C 0,0 C 62 % 69 % 0 % 998,2 hPa 0,0 l/m 3,5 km/h (1 Bft) SW 225 0 min 11,7 C 19,0 C 3,4 km/h (1 Bft)
14.06.2016 17:55 19,1 C 22,9 C 18,5 C 19,1 C 19,0 C 0,0 C 63 % 71 % 0 % 998,2 hPa 0,0 l/m 1,8 km/h (1 Bft) W 270 0 min 11,9 C 19,0 C 1,8 km/h (1 Bft)
14.06.2016 18:00 19,0 C 22,9 C 18,4 C 19,0 C 19,0 C 0,0 C 64 % 71 % 0 % 998,2 hPa 0,0 l/m 1,1 km/h (1 Bft) W 270 0 min 12,0 C 19,0 C 2,4 km/h (1 Bft)
14.06.2016 18:05 18,9 C 22,9 C 18,3 C 19,1 C 19,1 C 0,2 C 65 % 73 % 5 % 998,5 hPa 0,0 l/m 1,0 km/h (0 Bft) W 270 0 min 12,2 C 19,1 C 0,0 km/h (0 Bft)
14.06.2016 18:10 18,9 C 22,9 C 18,3 C 19,2 C 19,2 C 0,3 C 67 % 74 % 8 % 998,5 hPa 0,0 l/m 0,8 km/h (0 Bft) S 180 0 min 12,6 C 19,2 C 0,0 km/h (0 Bft)
14.06.2016 18:15 18,9 C 22,9 C 18,3 C 19,5 C 19,5 C 0,6 C 67 % 74 % 16 % 998,5 hPa 0,0 l/m 0,2 km/h (0 Bft) O-NO 67 0 min 12,6 C 19,5 C 0,0 km/h (0 Bft)
14.06.2016 18:20 18,9 C 22,9 C 18,3 C 19,9 C 19,9 C 1,0 C 68 % 75 % 26 % 998,5 hPa 0,0 l/m 0,0 km/h (0 Bft) O-NO 67 0 min 12,9 C 19,9 C 0,0 km/h (0 Bft)
14.06.2016 18:25 19,0 C 22,9 C 18,3 C 20,2 C 20,2 C 1,2 C 68 % 76 % 32 % 998,8 hPa 0,0 l/m 0,0 km/h (0 Bft) NO 45 0 min 13,0 C 20,2 C 0,0 km/h (0 Bft)
14.06.2016 18:30 19,1 C 22,9 C 18,3 C 20,1 C 20,1 C 1,0 C 69 % 77 % 26 % 998,8 hPa 0,0 l/m 0,0 km/h (0 Bft) N-NW 337 0 min 13,3 C 20,1 C 0,0 km/h (0 Bft)
14.06.2016 18:35 19,1 C 22,9 C 18,0 C 19,9 C 19,9 C 0,8 C 68 % 77 % 21 % 998,8 hPa 0,0 l/m 0,0 km/h (0 Bft) O-NO 67 0 min 13,1 C 19,9 C 0,0 km/h (0 Bft)
14.06.2016 18:57 18,6 C 23,0 C 17,5 C 18,2 C 17,5 C 0,0 C 72 % 79 % 0 % 998,6 hPa 0,0 l/m 0,5 km/h (0 Bft) N 0 0 min 13,4 C 17,5 C 0,0 km/h (0 Bft)
14.06.2016 19:10 18,5 C 23,0 C 17,5 C 18,2 C 17,7 C 0,0 C 74 % 81 % 0 % 998,5 hPa 0,0 l/m 0,0 km/h (0 Bft) O-SO 112 0 min 13,8 C 17,7 C 0,0 km/h (0 Bft)
14.06.2016 19:15 18,5 C 23,0 C 17,5 C 18,3 C 17,8 C 0,0 C 74 % 82 % 0 % 998,5 hPa 0,0 l/m 0,0 km/h (0 Bft) NO 45 0 min 13,8 C 17,8 C 0,0 km/h (0 Bft)
14.06.2016 19:20 18,4 C 23,0 C 17,4 C 18,3 C 18,0 C 0,0 C 75 % 82 % 0 % 998,5 hPa 0,0 l/m 0,0 km/h (0 Bft) O-SO 112 0 min 13,9 C 18,0 C 0,0 km/h (0 Bft)
14.06.2016 19:25 18,2 C 23,0 C 17,5 C 18,2 C 18,1 C 0,0 C 76 % 83 % 0 % 998,6 hPa 0,0 l/m 0,0 km/h (0 Bft) O-NO 67 0 min 13,9 C 18,1 C 0,0 km/h (0 Bft)
14.06.2016 19:30 18,2 C 23,0 C 17,5 C 18,2 C 18,2 C 0,0 C 76 % 83 % 0 % 998,6 hPa 0,0 l/m 0,0 km/h (0 Bft) O-SO 112 0 min 13,9 C 18,2 C 0,0 km/h (0 Bft)
14.06.2016 19:35 18,1 C 23,0 C 17,5 C 18,3 C 18,3 C 0,2 C 77 % 83 % 5 % 998,6 hPa 0,0 l/m 0,0 km/h (0 Bft) SW 225 0 min 14,0 C 18,3 C 0,0 km/h (0 Bft)
14.06.2016 19:40 18,1 C 23,0 C 17,5 C 18,3 C 18,3 C 0,2 C 77 % 84 % 5 % 998,6 hPa 0,0 l/m 1,0 km/h (0 Bft) S-SW 202 0 min 14,0 C 18,3 C 9,5 km/h (2 Bft)
14.06.2016 19:45 18,0 C 23,0 C 17,5 C 18,3 C 18,3 C 0,3 C 76 % 83 % 8 % 998,9 hPa 0,0 l/m 2,4 km/h (1 Bft) S-SW 202 0 min 13,7 C 18,3 C 4,5 km/h (1 Bft)
14.06.2016 19:50 18,0 C 23,0 C 17,3 C 18,3 C 18,3 C 0,3 C 75 % 83 % 8 % 998,9 hPa 0,0 l/m 3,2 km/h (1 Bft) S 180 0 min 13,5 C 18,3 C 3,5 km/h (1 Bft)
14.06.2016 19:55 17,9 C 23,1 C 17,2 C 18,0 C 18,0 C 0,1 C 74 % 81 % 3 % 998,9 hPa 0,0 l/m 3,1 km/h (1 Bft) S 180 0 min 13,2 C 18,0 C 4,5 km/h (1 Bft)
14.06.2016 20:00 17,9 C 23,1 C 17,0 C 17,9 C 17,8 C 0,0 C 73 % 81 % 0 % 998,9 hPa 0,0 l/m 2,7 km/h (1 Bft) W-SW 247 0 min 13,0 C 17,8 C 3,4 km/h (1 Bft)
14.06.2016 20:05 17,7 C 23,1 C 16,9 C 17,4 C 16,8 C 0,0 C 74 % 81 % 0 % 998,8 hPa 0,0 l/m 1,9 km/h (1 Bft) NW 315 0 min 13,0 C 16,8 C 2,7 km/h (1 Bft)
14.06.2016 20:10 17,5 C 23,1 C 16,7 C 17,1 C 16,2 C 0,0 C 74 % 82 % 0 % 998,8 hPa 0,0 l/m 1,3 km/h (1 Bft) NW 315 0 min 12,8 C 16,2 C 0,0 km/h (0 Bft)
14.06.2016 20:15 17,3 C 23,1 C 16,5 C 16,7 C 15,6 C 0,0 C 75 % 82 % 0 % 998,8 hPa 0,0 l/m 0,3 km/h (0 Bft) NO 45 0 min 12,8 C 15,6 C 0,0 km/h (0 Bft)
14.06.2016 20:20 17,0 C 23,1 C 16,3 C 16,5 C 15,4 C 0,0 C 76 % 83 % 0 % 998,8 hPa 0,0 l/m 0,0 km/h (0 Bft) O-NO 67 0 min 12,7 C 15,4 C 0,0 km/h (0 Bft)
14.06.2016 20:25 16,8 C 23,1 C 16,2 C 16,3 C 15,4 C 0,0 C 77 % 84 % 0 % 998,9 hPa 0,0 l/m 0,0 km/h (0 Bft) O-NO 67 0 min 12,7 C 15,4 C 0,0 km/h (0 Bft)
14.06.2016 20:30 16,7 C 23,1 C 16,1 C 16,3 C 15,4 C 0,0 C 77 % 85 % 0 % 998,9 hPa 0,0 l/m 0,0 km/h (0 Bft) N 360 0 min 12,6 C 15,4 C 0,0 km/h (0 Bft)
14.06.2016 20:35 16,5 C 23,1 C 16,0 C 16,2 C 15,5 C 0,0 C 78 % 85 % 0 % 998,9 hPa 0,0 l/m 0,0 km/h (0 Bft) S-SO 157 0 min 12,6 C 15,5 C 0,0 km/h (0 Bft)
14.06.2016 20:40 16,4 C 23,1 C 16,0 C 16,1 C 15,6 C 0,0 C 78 % 85 % 0 % 998,9 hPa 0,0 l/m 0,0 km/h (0 Bft) S-SW 202 0 min 12,6 C 15,6 C 0,0 km/h (0 Bft)
14.06.2016 20:45 16,4 C 23,1 C 16,0 C 16,2 C 15,7 C 0,0 C 78 % 85 % 0 % 998,9 hPa 0,0 l/m 0,0 km/h (0 Bft) O-SO 112 0 min 12,6 C 15,7 C 0,0 km/h (0 Bft)
14.06.2016 20:50 16,3 C 23,1 C 16,0 C 16,1 C 15,7 C 0,0 C 79 % 85 % 0 % 998,9 hPa 0,0 l/m 0,0 km/h (0 Bft) O 90 0 min 12,6 C 15,7 C 0,0 km/h (0 Bft)
14.06.2016 20:55 16,0 C 23,2 C 15,9 C 15,9 C 15,7 C 0,0 C 79 % 86 % 0 % 998,9 hPa 0,0 l/m 0,0 km/h (0 Bft) O-NO 67 0 min 12,4 C 15,7 C 0,0 km/h (0 Bft)
14.06.2016 21:00 15,9 C 23,2 C 15,9 C 15,8 C 15,7 C 0,0 C 79 % 86 % 0 % 998,9 hPa 0,0 l/m 0,0 km/h (0 Bft) NO 45 0 min 12,3 C 15,7 C 1,6 km/h (1 Bft)
14.06.2016 21:05 15,7 C 23,2 C 15,9 C 15,7 C 15,7 C 0,0 C 80 % 86 % 0 % 998,8 hPa 0,0 l/m 0,2 km/h (0 Bft) W-NW 292 0 min 12,3 C 15,7 C 0,0 km/h (0 Bft)
14.06.2016 21:10 15,5 C 23,2 C 15,8 C 15,7 C 15,7 C 0,2 C 80 % 86 % 5 % 998,8 hPa 0,0 l/m 0,2 km/h (0 Bft) W-NW 292 5 min 12,1 C 15,7 C 0,0 km/h (0 Bft)
14.06.2016 21:15 15,5 C 23,1 C 15,9 C 15,6 C 15,6 C 0,1 C 80 % 87 % 0 % 998,8 hPa 0,0 l/m 0,0 km/h (0 Bft) S-SW 202 0 min 12,1 C 15,6 C 0,0 km/h (0 Bft)
14.06.2016 21:20 15,3 C 23,2 C 15,7 C 15,5 C 15,5 C 0,2 C 80 % 87 % 0 % 998,8 hPa 0,0 l/m 0,0 km/h (0 Bft) O-SO 112 0 min 11,9 C 15,5 C 0,0 km/h (0 Bft)
14.06.2016 21:25 15,2 C 23,1 C 15,7 C 15,5 C 15,5 C 0,3 C 80 % 87 % 0 % 998,8 hPa 0,0 l/m 0,0 km/h (0 Bft) O-NO 67 0 min 11,8 C 15,5 C 0,0 km/h (0 Bft)
14.06.2016 21:30 15,2 C 23,2 C 15,6 C 15,4 C 15,4 C 0,2 C 80 % 87 % 0 % 998,8 hPa 0,0 l/m 0,0 km/h (0 Bft) N 360 0 min 11,8 C 15,4 C 0,0 km/h (0 Bft)
14.06.2016 21:35 15,1 C 23,2 C 15,6 C 15,4 C 15,4 C 0,3 C 80 % 87 % 0 % 998,8 hPa 0,0 l/m 0,0 km/h (0 Bft) O-NO 67 0 min 11,7 C 15,4 C 0,0 km/h (0 Bft)
14.06.2016 21:48 14,8 C 23,2 C 15,5 C 15,1 C 15,1 C 0,3 C 81 % 87 % 0 % 999,1 hPa 0,0 l/m 0,0 km/h (0 Bft) N 0 0 min 11,6 C 15,1 C 0,0 km/h (0 Bft)
14.06.2016 21:56 14,7 C 23,2 C 15,4 C 15,0 C 15,0 C 0,3 C 81 % 87 % 0 % 999,1 hPa 0,0 l/m 0,0 km/h (0 Bft) N-NO 22 0 min 11,5 C 15,0 C 0,0 km/h (0 Bft)
14.06.2016 22:00 14,6 C 23,2 C 15,4 C 15,0 C 15,0 C 0,4 C 81 % 87 % 0 % 999,1 hPa 0,0 l/m 0,0 km/h (0 Bft) N-NO 22 0 min 11,4 C 15,0 C 0,0 km/h (0 Bft)
14.06.2016 22:01 14,6 C 23,2 C 15,4 C 15,0 C 15,0 C 0,4 C 81 % 87 % 0 % 999,1 hPa 0,0 l/m 0,0 km/h (0 Bft) N-NO 22 0 min 11,4 C 15,0 C 0,0 km/h (0 Bft)
14.06.2016 22:02 14,6 C 23,2 C 15,4 C 15,0 C 15,0 C 0,4 C 81 % 87 % 0 % 999,1 hPa 0,0 l/m 0,0 km/h (0 Bft) N-NO 22 0 min 11,4 C 15,0 C 0,0 km/h (0 Bft)
14.06.2016 22:03 14,5 C 23,2 C 15,5 C 14,9 C 14,9 C 0,4 C 81 % 88 % 0 % 999,2 hPa 0,0 l/m 0,0 km/h (0 Bft) O-NO 67 0 min 11,3 C 14,9 C 0,0 km/h (0 Bft)
14.06.2016 22:04 14,5 C 23,2 C 15,5 C 14,9 C 14,9 C 0,4 C 81 % 88 % 0 % 999,2 hPa 0,0 l/m 0,0 km/h (0 Bft) O-NO 67 0 min 11,3 C 14,9 C 0,0 km/h (0 Bft)
14.06.2016 22:07 14,5 C 23,2 C 15,5 C 14,9 C 14,9 C 0,4 C 81 % 88 % 0 % 999,2 hPa 0,0 l/m 0,0 km/h (0 Bft) O-NO 67 0 min 11,3 C 14,9 C 0,0 km/h (0 Bft)
14.06.2016 22:10 14,4 C 23,2 C 15,4 C 14,9 C 14,9 C 0,5 C 81 % 87 % 0 % 999,2 hPa 0,0 l/m 0,0 km/h (0 Bft) O-NO 67 0 min 11,2 C 14,9 C 0,0 km/h (0 Bft)
14.06.2016 22:15 14,5 C 23,2 C 15,3 C 14,8 C 14,8 C 0,3 C 81 % 87 % 0 % 999,2 hPa 0,0 l/m 0,0 km/h (0 Bft) W-SW 247 0 min 11,3 C 14,8 C 0,0 km/h (0 Bft)
14.06.2016 22:20 14,4 C 23,2 C 15,3 C 14,7 C 14,7 C 0,3 C 82 % 88 % 0 % 999,2 hPa 0,0 l/m 0,0 km/h (0 Bft) W 270 0 min 11,4 C 14,7 C 0,0 km/h (0 Bft)
14.06.2016 22:25 14,3 C 23,2 C 15,2 C 14,6 C 14,6 C 0,3 C 82 % 88 % 0 % 999,1 hPa 0,0 l/m 0,0 km/h (0 Bft) W 270 0 min 11,3 C 14,6 C 0,0 km/h (0 Bft)
14.06.2016 22:30 14,3 C 23,2 C 15,2 C 14,4 C 14,4 C 0,1 C 82 % 88 % 0 % 999,1 hPa 0,0 l/m 0,0 km/h (0 Bft) O-NO 67 0 min 11,3 C 14,4 C 0,0 km/h (0 Bft)
14.06.2016 22:35 14,2 C 23,2 C 15,2 C 14,4 C 14,4 C 0,2 C 82 % 88 % 0 % 999,1 hPa 0,0 l/m 0,0 km/h (0 Bft) O-NO 67 0 min 11,2 C 14,4 C 0,0 km/h (0 Bft)
14.06.2016 22:40 14,1 C 23,2 C 15,1 C 14,3 C 14,3 C 0,2 C 82 % 88 % 0 % 999,1 hPa 0,0 l/m 0,0 km/h (0 Bft) NW 315 0 min 11,1 C 14,3 C 0,0 km/h (0 Bft)
14.06.2016 22:45 14,0 C 23,2 C 15,1 C 14,3 C 14,3 C 0,3 C 82 % 88 % 0 % 999,4 hPa 0,0 l/m 0,0 km/h (0 Bft) N-NO 22 0 min 11,0 C 14,3 C 0,0 km/h (0 Bft)
14.06.2016 22:50 14,0 C 23,2 C 15,1 C 14,3 C 14,3 C 0,3 C 83 % 88 % 0 % 999,4 hPa 0,0 l/m 0,0 km/h (0 Bft) W-SW 247 0 min 11,2 C 14,3 C 0,0 km/h (0 Bft)
14.06.2016 22:55 14,0 C 23,2 C 15,0 C 14,3 C 14,3 C 0,3 C 83 % 89 % 0 % 999,4 hPa 0,0 l/m 0,0 km/h (0 Bft) W-SW 247 0 min 11,2 C 14,3 C 0,0 km/h (0 Bft)
14.06.2016 23:00 14,0 C 23,3 C 15,1 C 14,3 C 14,3 C 0,3 C 83 % 89 % 0 % 999,4 hPa 0,0 l/m 0,0 km/h (0 Bft) SW 225 0 min 11,2 C 14,3 C 0,0 km/h (0 Bft)
14.06.2016 23:05 13,9 C 23,3 C 15,1 C 14,3 C 14,3 C 0,4 C 83 % 89 % 0 % 999,4 hPa 0,0 l/m 0,0 km/h (0 Bft) W 270 0 min 11,1 C 14,3 C 0,0 km/h (0 Bft)
14.06.2016 23:10 13,9 C 23,3 C 15,1 C 14,2 C 14,2 C 0,3 C 83 % 89 % 0 % 999,4 hPa 0,0 l/m 0,0 km/h (0 Bft) NO 45 0 min 11,1 C 14,2 C 0,0 km/h (0 Bft)
14.06.2016 23:15 13,8 C 23,3 C 15,0 C 14,2 C 14,2 C 0,4 C 84 % 89 % 0 % 999,4 hPa 0,0 l/m 0,0 km/h (0 Bft) S-SO 157 0 min 11,1 C 14,2 C 0,0 km/h (0 Bft)
14.06.2016 23:20 13,9 C 23,3 C 15,0 C 14,3 C 14,3 C 0,4 C 84 % 89 % 0 % 999,4 hPa 0,0 l/m 0,2 km/h (0 Bft) O 90 0 min 11,2 C 14,3 C 0,0 km/h (0 Bft)
14.06.2016 23:25 13,9 C 23,2 C 15,0 C 14,3 C 14,3 C 0,4 C 84 % 89 % 0 % 999,3 hPa 0,0 l/m 0,2 km/h (0 Bft) SW 225 0 min 11,2 C 14,3 C 0,0 km/h (0 Bft)
14.06.2016 23:30 13,7 C 23,2 C 14,9 C 14,4 C 14,4 C 0,7 C 84 % 89 % 0 % 999,3 hPa 0,0 l/m 0,0 km/h (0 Bft) O-NO 67 0 min 11,0 C 14,4 C 0,0 km/h (0 Bft)
14.06.2016 23:35 13,7 C 23,2 C 14,9 C 14,4 C 14,4 C 0,7 C 84 % 89 % 0 % 999,3 hPa 0,0 l/m 0,0 km/h (0 Bft) N-NW 337 0 min 11,0 C 14,4 C 0,0 km/h (0 Bft)
14.06.2016 23:40 13,7 C 23,1 C 14,9 C 14,4 C 14,4 C 0,7 C 84 % 89 % 0 % 999,3 hPa 0,0 l/m 0,0 km/h (0 Bft) NW 315 0 min 11,0 C 14,4 C 0,0 km/h (0 Bft)
14.06.2016 23:45 13,7 C 23,1 C 14,8 C 14,5 C 14,5 C 0,8 C 84 % 89 % 0 % 999,8 hPa 0,0 l/m 0,0 km/h (0 Bft) NO 45 0 min 11,0 C 14,5 C 0,0 km/h (0 Bft)
14.06.2016 23:50 13,6 C 23,1 C 14,9 C 14,4 C 14,4 C 0,8 C 85 % 89 % 0 % 999,8 hPa 0,0 l/m 0,0 km/h (0 Bft) W-SW 247 0 min 11,1 C 14,4 C 0,0 km/h (0 Bft)
_ Min-Zeit 01:27 09:05 01:23 01:22 01:15 01:10 16:30 16:45 00:00 17:05 - 00:00 - - - 01:22 01:15 00:00
Minimum _ 11,8 C 22,6 C 13,3 C 11,9 C 11,9 C 0,0 C 54 % 61 % 0 % 998,0 hPa - 0,0 km/h (0 Bft) - - - 9,8 C 11,9 C 0,0 km/h (0 Bft)
_ Max-Zeit 15:05 00:05 16:35 16:35 16:35 10:35 06:35 22:55 08:45 07:45 00:00 17:35 - - 09:59 14:35 16:35 17:35
Maximum _ 24,3 C 23,7 C 25,7 C 30,7 C 30,7 C 7,0 C 92 % 89 % 100 % 1000,2 hPa 0,0 l/m 5,1 km/h
NW (1 Bft)
- - 24 min 15,8 C 30,7 C 14,5 km/h
NW (3 Bft)
Durchschnitt _ 16,6 C 23,0 C 16,6 C 18,5 C 18,5 C 1,9 C 78 % 77 % 41 % 999,3 hPa #0,0 l/m 0,9 km/h (0 Bft) S - #8:15 h 12,6 C 18,5 C 1,5 km/h (1 Bft)
2016 www.wetterstation-wechselburg.de